KRBD/RBD METAR and TAF weather

Enter ICAO airport designator
Station Type Date Time Source
KRBD METAR 2019/04/22 19:53 UTC NOAA

KRBD 221953Z 18010G15KT 10SM FEW038 25/16 A3002 RMK AO2 SLP161 T02500161


Station Type Date Time Source
KRBD Decoded METAR 2019/04/22 19:53 UTC NOAA

DALLAS EXECUTIVE AIRPORT, TX, United States (KRBD) 32-41N 096-52W 203M
Apr 22, 2019 - 03:53 PM EDT / 2019.04.22 1953 UTC
Wind: from the S (180 degrees) at 12 MPH (10 KT) gusting to 17 MPH (15 KT):0
Visibility: 10 mile(s):0
Sky conditions: mostly clear
Temperature: 77.0 F (25.0 C)
Dew Point: 61.0 F (16.1 C)
Relative Humidity: 57%
Pressure (altimeter): 30.02 in. Hg (1016 hPa)
ob: KRBD 221953Z 18010G15KT 10SM FEW038 25/16 A3002 RMK AO2 SLP161 T02500161
cycle: 20

Station Type Date Time Source
KRBD TAF UTC NOAA

Error!

Example: see airport list